createdAt,value
2023-09-13T00:00:27.057Z,100.00
2023-09-13T00:02:53.653Z,100.00
2023-09-13T00:05:20.443Z,100.00
2023-09-13T00:07:47.131Z,100.00
2023-09-13T00:10:13.612Z,100.00
2023-09-13T00:12:40.221Z,100.00
2023-09-13T00:15:07.286Z,100.00
2023-09-13T00:17:34.449Z,100.00
2023-09-13T00:20:01.311Z,100.00
2023-09-13T00:22:27.762Z,100.00
2023-09-13T00:24:54.221Z,100.00
2023-09-13T00:27:20.688Z,100.00
2023-09-13T00:29:47.117Z,100.00
2023-09-13T00:32:13.607Z,100.00
2023-09-13T00:34:40.134Z,100.00
2023-09-13T00:37:06.819Z,100.00
2023-09-13T00:39:33.273Z,100.00
2023-09-13T00:41:59.720Z,100.00
2023-09-13T00:44:26.183Z,100.00
2023-09-13T00:46:52.886Z,100.00
2023-09-13T00:49:19.682Z,100.00
2023-09-13T00:51:46.276Z,100.00
2023-09-13T00:54:14.159Z,100.00
2023-09-13T00:56:42.642Z,100.00
2023-09-13T00:59:10.690Z,100.00
2023-09-13T01:01:37.407Z,100.00
2023-09-13T01:04:04.582Z,100.00
2023-09-13T01:06:31.996Z,100.00
2023-09-13T01:08:58.979Z,100.00
2023-09-13T01:11:26.299Z,100.00
2023-09-13T01:13:52.799Z,100.00
2023-09-13T01:16:47.298Z,100.00
2023-09-13T01:19:45.805Z,100.00
2023-09-13T01:22:27.549Z,100.00
2023-09-13T01:25:16.905Z,100.00
2023-09-13T01:28:02.126Z,100.00
2023-09-13T01:30:29.914Z,100.00
2023-09-13T01:32:58.684Z,100.00
2023-09-13T01:35:25.222Z,100.00
2023-09-13T01:37:51.759Z,100.00
2023-09-13T01:40:18.427Z,100.00
2023-09-13T01:42:46.540Z,100.00
2023-09-13T01:45:15.419Z,100.00
2023-09-13T01:47:47.231Z,100.00
2023-09-13T01:50:15.207Z,100.00
2023-09-13T01:52:41.767Z,100.00
2023-09-13T01:55:08.997Z,100.00
2023-09-13T01:57:35.704Z,100.00
2023-09-13T02:00:05.825Z,100.00
2023-09-13T02:02:32.307Z,100.00
2023-09-13T02:04:58.830Z,100.00
2023-09-13T02:07:25.355Z,100.00
2023-09-13T02:09:53.369Z,100.00
2023-09-13T02:12:19.962Z,100.00
2023-09-13T02:14:46.532Z,100.00
2023-09-13T02:17:12.947Z,100.00
2023-09-13T02:19:39.482Z,100.00
2023-09-13T02:22:06.104Z,100.00
2023-09-13T02:24:34.019Z,100.00
2023-09-13T02:27:01.038Z,100.00
2023-09-13T02:29:27.506Z,100.00
2023-09-13T02:31:54.286Z,100.00
2023-09-13T02:34:21.131Z,100.00
2023-09-13T02:36:49.010Z,100.00
2023-09-13T02:39:51.035Z,100.00
2023-09-13T02:42:17.500Z,100.00
2023-09-13T02:44:43.991Z,100.00
2023-09-13T02:47:10.795Z,100.00
2023-09-13T02:49:37.271Z,100.00
2023-09-13T02:52:04.054Z,100.00
2023-09-13T02:54:30.854Z,100.00
2023-09-13T02:56:57.432Z,100.00
2023-09-13T02:59:23.967Z,100.00
2023-09-13T03:01:51.736Z,100.00
2023-09-13T03:04:18.610Z,100.00
2023-09-13T03:06:45.168Z,100.00
2023-09-13T03:09:11.695Z,100.00
2023-09-13T03:11:38.323Z,100.00
2023-09-13T03:14:06.240Z,100.00
2023-09-13T03:16:32.767Z,100.00
2023-09-13T03:18:59.486Z,100.00
2023-09-13T03:21:26.198Z,100.00
2023-09-13T03:23:52.724Z,100.00
2023-09-13T03:26:24.756Z,100.00
2023-09-13T03:28:56.205Z,100.00
2023-09-13T03:31:25.141Z,100.00
2023-09-13T03:33:54.357Z,100.00
2023-09-13T03:36:21.700Z,100.00
2023-09-13T03:38:48.503Z,100.00
2023-09-13T03:41:17.288Z,100.00
2023-09-13T03:43:44.005Z,100.00
2023-09-13T03:46:11.067Z,100.00
2023-09-13T03:48:39.021Z,100.00
2023-09-13T03:51:05.972Z,100.00
2023-09-13T03:53:32.742Z,100.00
2023-09-13T03:56:00.238Z,100.00
2023-09-13T03:58:27.054Z,100.00
2023-09-13T04:00:54.468Z,100.00
2023-09-13T04:03:21.358Z,100.00
2023-09-13T04:05:48.175Z,100.00
2023-09-13T04:08:14.858Z,100.00
2023-09-13T04:10:41.440Z,100.00
2023-09-13T04:13:08.153Z,100.00
2023-09-13T04:15:34.809Z,100.00
2023-09-13T04:18:01.416Z,100.00
2023-09-13T04:20:27.978Z,100.00
2023-09-13T04:22:54.399Z,100.00
2023-09-13T04:25:20.890Z,100.00
2023-09-13T04:27:48.610Z,100.00
2023-09-13T04:30:16.907Z,100.00
2023-09-13T04:32:44.206Z,100.00
2023-09-13T04:35:13.279Z,100.00
2023-09-13T04:37:40.349Z,100.00
2023-09-13T04:40:07.495Z,100.00
2023-09-13T04:42:38.676Z,100.00
2023-09-13T04:45:05.849Z,100.00
2023-09-13T04:47:32.547Z,100.00
2023-09-13T04:49:59.295Z,100.00
2023-09-13T04:52:25.852Z,100.00
2023-09-13T04:54:52.374Z,100.00
2023-09-13T04:57:18.942Z,100.00
2023-09-13T04:59:47.415Z,100.00
2023-09-13T05:02:14.095Z,100.00
2023-09-13T05:04:41.227Z,100.00
2023-09-13T05:07:08.420Z,100.00
2023-09-13T05:09:36.550Z,100.00
2023-09-13T05:12:03.306Z,100.00
2023-09-13T05:14:29.757Z,100.00
2023-09-13T05:16:56.294Z,100.00
2023-09-13T05:19:22.863Z,100.00
2023-09-13T05:21:49.465Z,100.00
2023-09-13T05:24:15.974Z,100.00
2023-09-13T05:26:42.424Z,100.00
2023-09-13T05:29:08.857Z,100.00
2023-09-13T05:31:35.428Z,100.00
2023-09-13T05:34:02.971Z,100.00
2023-09-13T05:36:29.477Z,100.00
2023-09-13T05:38:55.890Z,100.00
2023-09-13T05:41:24.006Z,100.00
2023-09-13T05:43:50.833Z,100.00
2023-09-13T05:46:17.870Z,100.00
2023-09-13T05:48:44.482Z,100.00
2023-09-13T05:51:10.902Z,100.00
2023-09-13T05:53:37.407Z,100.00
2023-09-13T05:56:06.810Z,100.00
2023-09-13T05:58:33.455Z,100.00
2023-09-13T06:01:00.510Z,100.00
2023-09-13T06:03:27.406Z,100.00
2023-09-13T06:05:53.963Z,100.00
2023-09-13T06:08:20.723Z,100.00
2023-09-13T06:10:47.543Z,100.00
2023-09-13T06:13:16.206Z,100.00
2023-09-13T06:15:43.121Z,100.00
2023-09-13T06:18:09.759Z,100.00
2023-09-13T06:20:36.700Z,100.00
2023-09-13T06:23:03.193Z,100.00
2023-09-13T06:25:29.714Z,100.00
2023-09-13T06:27:56.351Z,100.00
2023-09-13T06:30:23.193Z,100.00
2023-09-13T06:33:05.478Z,100.00
2023-09-13T06:35:38.428Z,100.00
2023-09-13T06:38:06.239Z,100.00
2023-09-13T06:40:36.211Z,100.00
2023-09-13T06:43:03.550Z,100.00
2023-09-13T06:45:31.167Z,100.00
2023-09-13T06:47:59.097Z,100.00
2023-09-13T06:50:37.491Z,100.00
2023-09-13T06:53:30.500Z,100.00
2023-09-13T06:56:02.380Z,100.00
2023-09-13T06:58:33.953Z,100.00
2023-09-13T07:03:34.564Z,100.00
2023-09-13T07:06:01.767Z,100.00
2023-09-13T07:08:28.566Z,100.00
2023-09-13T07:10:55.048Z,100.00
2023-09-13T07:13:21.558Z,100.00
2023-09-13T07:15:48.936Z,100.00
2023-09-13T07:18:16.180Z,100.00
2023-09-13T07:20:42.764Z,100.00
2023-09-13T07:23:10.043Z,100.00
2023-09-13T07:25:36.560Z,100.00
2023-09-13T07:28:03.712Z,100.00
2023-09-13T07:30:30.289Z,100.00
2023-09-13T07:32:57.186Z,100.00
2023-09-13T07:35:24.748Z,100.00
2023-09-13T07:37:51.466Z,100.00
2023-09-13T07:40:18.090Z,100.00
2023-09-13T07:42:44.698Z,100.00
2023-09-13T07:45:11.190Z,97.92
2023-09-13T07:47:37.883Z,98.81
2023-09-13T07:50:04.768Z,99.17
2023-09-13T07:52:37.643Z,100.00
2023-09-13T07:55:14.989Z,100.00
2023-09-13T07:57:41.443Z,100.00
2023-09-13T08:00:08.373Z,100.00
2023-09-13T08:02:34.775Z,100.00
2023-09-13T08:05:01.339Z,97.87
2023-09-13T08:07:28.353Z,97.47
2023-09-13T08:09:54.851Z,97.25
2023-09-13T08:12:21.364Z,97.87
2023-09-13T08:14:47.787Z,97.74
2023-09-13T08:17:14.303Z,94.18
2023-09-13T08:19:40.830Z,95.52
2023-09-13T08:22:09.597Z,96.75
2023-09-13T08:24:36.069Z,99.90
2023-09-13T08:27:02.518Z,91.47
2023-09-13T08:29:29.033Z,95.43
2023-09-13T08:31:55.559Z,93.39
2023-09-13T08:34:22.044Z,93.56
2023-09-13T08:36:50.240Z,94.30
2023-09-13T08:39:16.960Z,92.35
2023-09-13T08:41:50.460Z,92.01
2023-09-13T08:44:23.554Z,93.93
2023-09-13T08:46:57.022Z,91.09
2023-09-13T08:49:24.237Z,90.54
2023-09-13T08:51:52.617Z,92.62
2023-09-13T08:54:20.332Z,90.92
2023-09-13T08:56:46.978Z,92.44
2023-09-13T08:59:14.280Z,93.19
2023-09-13T09:01:47.489Z,90.91
2023-09-13T09:04:15.556Z,87.53
2023-09-13T09:06:43.214Z,90.12
2023-09-13T09:09:10.418Z,90.87
2023-09-13T09:11:39.261Z,91.20
2023-09-13T09:14:05.913Z,87.10
2023-09-13T09:16:35.637Z,87.71
2023-09-13T09:19:05.917Z,85.33
2023-09-13T09:21:41.828Z,87.17
2023-09-13T09:24:08.466Z,86.01
2023-09-13T09:26:34.970Z,88.25
2023-09-13T09:29:34.875Z,87.66
2023-09-13T09:32:01.568Z,82.82
2023-09-13T09:34:32.136Z,85.33
2023-09-13T09:37:08.154Z,86.03
2023-09-13T09:39:43.933Z,85.29
2023-09-13T09:42:16.941Z,82.38
2023-09-13T09:44:44.315Z,85.19
2023-09-13T09:47:21.234Z,84.65
2023-09-13T09:49:48.907Z,81.30
2023-09-13T09:52:16.815Z,81.08
2023-09-13T09:54:48.804Z,83.27
2023-09-13T09:57:27.210Z,83.69
2023-09-13T09:59:53.822Z,84.25
2023-09-13T10:02:28.790Z,83.88
2023-09-13T10:04:55.620Z,85.48
2023-09-13T10:07:22.106Z,85.51
2023-09-13T10:09:48.595Z,86.77
2023-09-13T10:12:16.183Z,85.84
2023-09-13T10:14:45.406Z,82.51
2023-09-13T10:17:12.689Z,86.07
2023-09-13T10:19:39.884Z,83.27
2023-09-13T10:22:06.385Z,83.00
2023-09-13T10:24:39.437Z,81.54
2023-09-13T10:27:09.709Z,84.79
2023-09-13T10:29:46.648Z,82.64
2023-09-13T10:32:16.404Z,84.80
2023-09-13T10:34:50.002Z,84.95
2023-09-13T10:37:33.607Z,85.01
2023-09-13T10:40:23.333Z,81.72
2023-09-13T10:42:50.288Z,80.15
2023-09-13T10:45:20.298Z,83.24
2023-09-13T10:47:49.221Z,79.75
2023-09-13T10:50:16.923Z,83.84
2023-09-13T10:52:45.180Z,81.89
2023-09-13T10:55:13.594Z,82.75
2023-09-13T10:57:41.957Z,81.79
2023-09-13T11:00:12.905Z,77.98
2023-09-13T11:02:42.667Z,80.28
2023-09-13T11:05:13.954Z,82.17
2023-09-13T11:07:49.294Z,84.07
2023-09-13T11:10:20.589Z,85.45
2023-09-13T11:12:51.447Z,86.96
2023-09-13T11:15:27.580Z,87.03
2023-09-13T11:17:55.745Z,90.33
2023-09-13T11:20:29.701Z,88.91
2023-09-13T11:26:00.823Z,89.23
2023-09-13T11:28:38.425Z,87.90
2023-09-13T11:31:10.605Z,84.56
2023-09-13T11:33:41.147Z,84.45
2023-09-13T11:36:09.180Z,83.67
2023-09-13T11:38:36.801Z,82.99
2023-09-13T11:41:04.144Z,83.91
2023-09-13T11:43:34.535Z,82.49
2023-09-13T11:46:02.179Z,81.76
2023-09-13T11:48:57.187Z,82.61
2023-09-13T11:51:39.419Z,84.14
2023-09-13T11:54:17.033Z,81.65
2023-09-13T11:56:48.822Z,82.24
2023-09-13T11:59:18.617Z,81.01
2023-09-13T12:01:50.307Z,83.71
2023-09-13T12:06:55.147Z,81.30
2023-09-13T12:09:28.856Z,77.76
2023-09-13T12:12:01.420Z,78.11
2023-09-13T12:14:57.212Z,80.07
2023-09-13T12:17:20.306Z,77.75
2023-09-13T12:19:48.182Z,78.69
2023-09-13T12:22:18.337Z,79.68
2023-09-13T12:24:59.179Z,78.16
2023-09-13T12:27:25.682Z,77.85
2023-09-13T12:29:53.133Z,78.23
2023-09-13T12:32:19.706Z,79.98
2023-09-13T12:34:46.349Z,77.41
2023-09-13T12:37:12.999Z,77.95
2023-09-13T12:39:39.547Z,77.70
2023-09-13T12:42:10.133Z,78.24
2023-09-13T12:44:38.448Z,78.68
2023-09-13T12:47:06.167Z,78.74
2023-09-13T12:49:32.770Z,79.71
2023-09-13T12:51:59.378Z,81.32
2023-09-13T12:54:26.390Z,82.63
2023-09-13T12:56:52.885Z,79.53
2023-09-13T12:59:19.389Z,81.79
2023-09-13T13:01:45.929Z,79.80
2023-09-13T13:04:12.756Z,75.34
2023-09-13T13:06:55.881Z,76.49
2023-09-13T13:09:23.440Z,80.26
2023-09-13T13:11:50.823Z,79.28
2023-09-13T13:14:20.537Z,78.17
2023-09-13T13:16:54.478Z,77.65
2023-09-13T13:19:51.824Z,79.65
2023-09-13T13:22:19.594Z,75.40
2023-09-13T13:24:46.300Z,76.18
2023-09-13T13:27:12.956Z,75.89
2023-09-13T13:29:39.977Z,73.57
2023-09-13T13:32:07.358Z,72.27
2023-09-13T13:34:34.228Z,71.09
2023-09-13T13:37:00.770Z,68.36
2023-09-13T13:39:29.270Z,68.57
2023-09-13T13:41:56.020Z,69.68
2023-09-13T13:44:22.562Z,69.70
2023-09-13T13:46:49.037Z,68.94
2023-09-13T13:49:17.816Z,69.61
2023-09-13T13:51:46.578Z,66.56
2023-09-13T13:54:13.186Z,68.46
2023-09-13T13:56:41.426Z,69.54
2023-09-13T13:59:10.247Z,69.25
2023-09-13T14:01:36.896Z,70.17
2023-09-13T14:04:03.992Z,72.96
2023-09-13T14:06:30.766Z,71.21
2023-09-13T14:08:57.296Z,67.83
2023-09-13T14:11:24.921Z,64.39
2023-09-13T14:13:51.522Z,66.44
2023-09-13T14:16:18.006Z,67.09
2023-09-13T14:18:44.596Z,69.15
2023-09-13T14:21:11.069Z,66.92
2023-09-13T14:23:40.618Z,64.75
2023-09-13T14:26:07.068Z,68.07
2023-09-13T14:28:36.420Z,67.51
2023-09-13T14:31:02.933Z,68.87
2023-09-13T14:33:32.729Z,69.22
2023-09-13T14:35:59.196Z,69.17
2023-09-13T14:38:26.842Z,69.65
2023-09-13T14:40:53.377Z,70.97
2023-09-13T14:43:19.827Z,68.71
2023-09-13T14:45:46.805Z,69.63
2023-09-13T14:48:13.433Z,68.28
2023-09-13T14:50:41.106Z,69.37
2023-09-13T14:53:07.556Z,69.53
2023-09-13T14:55:34.002Z,69.53
2023-09-13T14:58:00.848Z,71.28
2023-09-13T15:00:27.348Z,69.69
2023-09-13T15:02:53.878Z,68.95
2023-09-13T15:05:20.537Z,69.68
2023-09-13T15:07:46.970Z,69.91
2023-09-13T15:10:13.767Z,70.17
2023-09-13T15:12:40.358Z,67.51
2023-09-13T15:15:07.187Z,67.00
2023-09-13T15:17:34.797Z,67.83
2023-09-13T15:20:01.469Z,67.78
2023-09-13T15:22:29.872Z,68.14
2023-09-13T15:24:56.514Z,67.92
2023-09-13T15:27:25.996Z,68.84
2023-09-13T15:29:52.639Z,68.74
2023-09-13T15:32:19.106Z,68.74
2023-09-13T15:34:45.620Z,66.76
2023-09-13T15:37:12.064Z,65.07
2023-09-13T15:39:41.037Z,64.70
2023-09-13T15:42:07.487Z,66.73
2023-09-13T15:44:33.977Z,65.91
2023-09-13T15:47:00.403Z,66.67
2023-09-13T15:49:27.465Z,66.92
2023-09-13T15:51:54.020Z,67.38
2023-09-13T15:54:20.816Z,69.60
2023-09-13T15:56:48.078Z,70.42
2023-09-13T15:59:14.525Z,70.02
2023-09-13T16:01:41.086Z,70.96
2023-09-13T16:04:08.799Z,70.60
2023-09-13T16:06:35.827Z,71.22
2023-09-13T16:09:02.339Z,71.69
2023-09-13T16:11:32.550Z,72.18
2023-09-13T16:13:59.187Z,72.12
2023-09-13T16:16:26.796Z,73.18
2023-09-13T16:18:53.537Z,76.53
2023-09-13T16:21:20.622Z,78.90
2023-09-13T16:23:47.513Z,79.98
2023-09-13T16:26:14.031Z,79.17
2023-09-13T16:28:40.602Z,79.76
2023-09-13T16:31:07.327Z,80.85
2023-09-13T16:33:34.158Z,82.02
2023-09-13T16:36:00.675Z,82.06
2023-09-13T16:38:27.101Z,82.61
2023-09-13T16:40:53.573Z,82.86
2023-09-13T16:43:20.008Z,83.46
2023-09-13T16:45:46.555Z,82.56
2023-09-13T16:48:23.692Z,83.36
2023-09-13T16:50:54.744Z,83.52
2023-09-13T16:53:22.163Z,84.81
2023-09-13T16:55:48.602Z,85.37
2023-09-13T16:58:16.196Z,86.18
2023-09-13T17:00:44.113Z,87.33
2023-09-13T17:03:10.985Z,88.61
2023-09-13T17:05:37.565Z,89.38
2023-09-13T17:08:04.214Z,90.06
2023-09-13T17:10:31.339Z,90.50
2023-09-13T17:12:57.852Z,91.18
2023-09-13T17:15:24.438Z,90.57
2023-09-13T17:17:50.894Z,91.20
2023-09-13T17:20:17.468Z,91.45
2023-09-13T17:22:43.888Z,90.44
2023-09-13T17:25:10.412Z,90.01
2023-09-13T17:27:36.874Z,90.18
2023-09-13T17:30:03.574Z,90.78
2023-09-13T17:32:30.079Z,91.18
2023-09-13T17:34:56.513Z,91.42
2023-09-13T17:37:23.134Z,91.49
2023-09-13T17:39:49.793Z,91.82
2023-09-13T17:42:16.339Z,92.67
2023-09-13T17:44:43.480Z,92.15
2023-09-13T17:47:09.953Z,92.21
2023-09-13T17:49:36.414Z,92.29
2023-09-13T17:52:02.843Z,92.87
2023-09-13T17:54:29.322Z,92.33
2023-09-13T17:56:55.842Z,92.83
2023-09-13T17:59:22.342Z,93.20
2023-09-13T18:01:49.499Z,93.23
2023-09-13T18:04:16.169Z,93.13
2023-09-13T18:06:42.732Z,93.04
2023-09-13T18:09:09.164Z,93.16
2023-09-13T18:11:35.604Z,92.83
2023-09-13T18:14:02.013Z,93.20
2023-09-13T18:16:29.369Z,93.61
2023-09-13T18:18:56.000Z,94.08
2023-09-13T18:21:22.505Z,93.82
2023-09-13T18:23:48.992Z,94.26
2023-09-13T18:26:18.611Z,94.71
2023-09-13T18:28:46.749Z,95.01
2023-09-13T18:31:13.993Z,95.30
2023-09-13T18:33:40.689Z,95.73
2023-09-13T18:36:07.866Z,95.95
2023-09-13T18:38:35.026Z,96.45
2023-09-13T18:41:01.458Z,97.19
2023-09-13T18:43:27.967Z,97.60
2023-09-13T18:45:59.438Z,97.90
2023-09-13T18:48:26.251Z,97.71
2023-09-13T18:51:00.134Z,97.71
2023-09-13T18:53:28.195Z,98.38
2023-09-13T18:55:57.082Z,98.18
2023-09-13T18:58:25.294Z,98.87
2023-09-13T19:00:59.764Z,99.06
2023-09-13T19:03:27.608Z,98.54
2023-09-13T19:06:00.995Z,98.58
2023-09-13T19:08:29.041Z,98.59
2023-09-13T19:10:56.264Z,99.03
2023-09-13T19:13:22.836Z,99.55
2023-09-13T19:16:03.332Z,99.70
2023-09-13T19:18:31.336Z,100.00
2023-09-13T19:20:58.241Z,100.00
2023-09-13T19:23:26.625Z,100.00
2023-09-13T19:25:55.094Z,100.00
2023-09-13T19:28:22.719Z,99.73
2023-09-13T19:30:53.579Z,100.00
2023-09-13T19:33:26.853Z,100.00
2023-09-13T19:35:58.734Z,100.00
2023-09-13T19:38:30.379Z,100.00
2023-09-13T19:40:58.211Z,100.00
2023-09-13T19:43:26.131Z,100.00
2023-09-13T19:45:55.428Z,100.00
2023-09-13T19:48:22.043Z,100.00
2023-09-13T19:50:58.131Z,100.00
2023-09-13T19:53:25.718Z,100.00
2023-09-13T19:55:52.272Z,100.00
2023-09-13T19:58:18.737Z,100.00
2023-09-13T20:00:48.317Z,100.00
2023-09-13T20:03:15.609Z,100.00
2023-09-13T20:05:42.627Z,100.00
2023-09-13T20:08:09.806Z,100.00
2023-09-13T20:10:36.326Z,100.00
2023-09-13T20:13:06.992Z,100.00
2023-09-13T20:15:33.593Z,100.00
2023-09-13T20:18:00.778Z,100.00
2023-09-13T20:20:30.070Z,100.00
2023-09-13T20:22:56.581Z,100.00
2023-09-13T20:25:23.333Z,100.00
2023-09-13T20:27:49.935Z,100.00
2023-09-13T20:30:16.509Z,100.00
2023-09-13T20:32:43.053Z,100.00
2023-09-13T20:35:09.805Z,100.00
2023-09-13T20:37:36.329Z,100.00
2023-09-13T20:40:05.194Z,100.00
2023-09-13T20:42:31.844Z,100.00
2023-09-13T20:44:58.367Z,100.00
2023-09-13T20:47:24.781Z,100.00
2023-09-13T20:49:51.180Z,100.00
2023-09-13T20:52:17.620Z,100.00
2023-09-13T20:54:44.207Z,100.00
2023-09-13T20:57:10.796Z,100.00
2023-09-13T20:59:37.266Z,100.00
2023-09-13T21:02:04.743Z,100.00
2023-09-13T21:04:32.977Z,100.00
2023-09-13T21:06:59.876Z,100.00
2023-09-13T21:09:29.126Z,100.00
2023-09-13T21:11:55.841Z,100.00
2023-09-13T21:14:22.414Z,100.00
2023-09-13T21:16:49.458Z,100.00
2023-09-13T21:19:16.239Z,100.00
2023-09-13T21:21:42.720Z,100.00
2023-09-13T21:24:09.274Z,100.00
2023-09-13T21:26:35.940Z,100.00
2023-09-13T21:29:02.385Z,100.00
2023-09-13T21:31:28.910Z,100.00
2023-09-13T21:33:55.465Z,100.00
2023-09-13T21:36:23.811Z,100.00
2023-09-13T21:38:50.949Z,100.00
2023-09-13T21:41:17.485Z,100.00
2023-09-13T21:43:43.989Z,100.00
2023-09-13T21:46:10.552Z,100.00
2023-09-13T21:48:41.897Z,100.00
2023-09-13T21:51:09.743Z,100.00
2023-09-13T21:53:36.169Z,100.00
2023-09-13T21:56:04.388Z,100.00
2023-09-13T21:58:32.129Z,100.00
2023-09-13T22:00:59.782Z,100.00
2023-09-13T22:03:30.702Z,100.00
2023-09-13T22:05:57.338Z,100.00
2023-09-13T22:08:23.796Z,100.00
2023-09-13T22:11:00.375Z,100.00
2023-09-13T22:13:26.806Z,100.00
2023-09-13T22:15:53.423Z,100.00
2023-09-13T22:18:19.954Z,100.00
2023-09-13T22:20:46.378Z,100.00
2023-09-13T22:23:12.783Z,100.00
2023-09-13T22:25:39.205Z,100.00
2023-09-13T22:28:06.080Z,100.00
2023-09-13T22:30:33.262Z,100.00
2023-09-13T22:32:59.797Z,100.00
2023-09-13T22:35:26.456Z,100.00
2023-09-13T22:37:52.846Z,100.00
2023-09-13T22:40:19.368Z,100.00
2023-09-13T22:42:46.191Z,100.00
2023-09-13T22:45:12.663Z,100.00
2023-09-13T22:47:39.208Z,100.00
2023-09-13T22:50:08.008Z,100.00
2023-09-13T22:52:34.743Z,100.00
2023-09-13T22:55:01.294Z,100.00
2023-09-13T22:57:30.673Z,100.00
2023-09-13T22:59:57.219Z,100.00
2023-09-13T23:02:23.697Z,100.00
2023-09-13T23:04:50.195Z,100.00
2023-09-13T23:07:16.806Z,100.00
2023-09-13T23:09:44.542Z,100.00
2023-09-13T23:12:11.149Z,100.00
2023-09-13T23:14:37.642Z,100.00
2023-09-13T23:17:04.419Z,100.00
2023-09-13T23:19:30.864Z,100.00
2023-09-13T23:21:57.316Z,100.00
2023-09-13T23:24:23.760Z,100.00
2023-09-13T23:26:51.754Z,100.00
2023-09-13T23:29:18.487Z,100.00
2023-09-13T23:31:44.955Z,100.00
2023-09-13T23:34:12.835Z,100.00
2023-09-13T23:36:39.459Z,100.00
2023-09-13T23:39:06.076Z,100.00
2023-09-13T23:41:32.600Z,100.00
2023-09-13T23:43:59.149Z,100.00
2023-09-13T23:46:25.916Z,100.00
2023-09-13T23:48:53.722Z,100.00
2023-09-13T23:51:20.249Z,100.00
2023-09-13T23:53:52.892Z,100.00
2023-09-13T23:56:21.106Z,100.00
2023-09-13T23:58:48.851Z,100.00
